0CD3 weather

Branch's Heliport
Kersey, Colorado, United States

Public forecast

Using degrees Fahrenheit for public forecast. Weather courtesy of forecast.io.

Closest aviation weather report (METAR) to Branch's Heliport

Closest report is Greeley–Weld County Airport, 7.2 nm (13.3 km) NW. Retrieved 2019/10/23 20:36 UTC (0 seconds ago):

KGXY 232036Z AUTO 34020KT 10SM SCT070 SCT090 11/M07 A3009 RMK AO2 WSHFT 2016

Closest aviation forecast (TAF) to Branch's Heliport

Closest forecast is Denver International Airport, 29.9 nm (55.5 km) SSW. Retrieved 2019/10/23 18:24 UTC (2 hours ago):

TAF KDEN 231722Z 2318/2424 04010KT P6SM SCT080 SCT220 FM231900 35015G23KT P6SM FEW040 SCT080 SCT120 FM232200 36020G28KT P6SM BKN030 OVC040 TEMPO 2322/2324 -SHRA OVC025 FM240000 03014G20KT 2SM -SHSN BR BKN010 OVC020 TEMPO 2400/2404 3/4SM -SN BR OVC005 FM240400 03012KT 2SM -SN BR SCT005 OVC010 FM240700 04009KT 4SM -SN BR SCT006 OVC012 FM241000 36008KT P6SM BKN015 OVC025 FM241600 02007KT P6SM SCT015 BKN030 FM241900 35007KT P6SM FEW030